Time;durP1;ratioP1;P1;durP2;ratioP2;P2;SDS_P1;SDS_P2;PMS_P1;PMS_P2;Temp;Humidity;BMP_temperature;BMP_pressure;BME280_temperature;BME280_humidity;BME280_pressure;Samples;Min_cycle;Max_cycle;Signal;HPM_P1;HPM_P2
2021/05/16 00:01:18;;;;;;;1.48;1.38;;;12.50;99.90;;;;;;5008330;28;20575;-73
2021/05/16 00:03:44;;;;;;;1.50;1.50;;;12.50;99.90;;;;;;5009959;28;20212;-73
2021/05/16 00:06:11;;;;;;;1.65;1.55;;;12.50;99.90;;;;;;5004809;28;20654;-73
2021/05/16 00:08:38;;;;;;;1.52;1.42;;;12.50;99.90;;;;;;5006560;28;20433;-73
2021/05/16 00:11:05;;;;;;;1.65;1.58;;;12.50;99.90;;;;;;5008569;28;20268;-73
2021/05/16 00:13:32;;;;;;;1.67;1.58;;;12.40;99.90;;;;;;5012769;28;20215;-73
2021/05/16 00:15:59;;;;;;;2.13;1.80;;;12.40;99.90;;;;;;5008809;28;20201;-74
2021/05/16 00:18:26;;;;;;;1.70;1.60;;;12.40;99.90;;;;;;5010089;28;20259;-73
2021/05/16 00:20:53;;;;;;;1.52;1.50;;;12.30;99.90;;;;;;5010322;28;20211;-73
2021/05/16 00:23:20;;;;;;;1.70;1.60;;;12.20;99.90;;;;;;5009247;28;20240;-74
2021/05/16 00:25:46;;;;;;;1.70;1.60;;;12.20;99.90;;;;;;5012910;28;20196;-73
2021/05/16 00:28:14;;;;;;;1.80;1.70;;;12.10;99.90;;;;;;5007973;28;20228;-73
2021/05/16 00:30:40;;;;;;;2.15;1.73;;;12.10;99.90;;;;;;5005870;28;20201;-73
2021/05/16 00:33:07;;;;;;;1.92;1.65;;;12.00;99.90;;;;;;5005656;28;20227;-73
2021/05/16 00:35:34;;;;;;;1.70;1.60;;;12.00;99.90;;;;;;5006912;28;20575;-73
2021/05/16 00:38:02;;;;;;;1.50;1.50;;;12.00;99.90;;;;;;5007413;28;20740;-73
2021/05/16 00:40:30;;;;;;;1.42;1.42;;;12.00;99.90;;;;;;5013158;28;20204;-73
2021/05/16 00:42:56;;;;;;;1.50;1.40;;;11.90;99.90;;;;;;5012952;28;20231;-73
2021/05/16 00:45:26;;;;;;;2.10;1.90;;;11.90;99.90;;;;;;5011586;28;20327;-73
2021/05/16 00:47:54;;;;;;;1.85;1.75;;;11.90;99.90;;;;;;5005248;28;20234;-72
2021/05/16 00:50:23;;;;;;;2.20;1.70;;;11.80;99.90;;;;;;5007753;28;20196;-73
2021/05/16 00:52:50;;;;;;;2.00;1.90;;;11.80;99.90;;;;;;5005788;28;20554;-73
2021/05/16 00:55:17;;;;;;;1.90;1.80;;;11.70;99.90;;;;;;5007515;28;20559;-72
2021/05/16 00:57:44;;;;;;;1.63;1.52;;;11.70;99.90;;;;;;5008576;28;20204;-73
2021/05/16 01:00:14;;;;;;;1.88;1.77;;;11.60;99.90;;;;;;5008039;28;20216;-73
2021/05/16 01:02:42;;;;;;;1.83;1.73;;;11.60;99.90;;;;;;5008798;28;20228;-73
2021/05/16 01:05:11;;;;;;;1.58;1.55;;;11.60;99.90;;;;;;5008624;28;20219;-73
2021/05/16 01:07:39;;;;;;;1.88;1.77;;;11.50;99.90;;;;;;5011313;28;20200;-73
2021/05/16 01:10:08;;;;;;;1.67;1.58;;;11.50;99.90;;;;;;5006792;28;20232;-73
2021/05/16 01:12:41;;;;;;;1.80;1.70;;;11.50;99.90;;;;;;5008254;28;20547;-73
2021/05/16 01:15:10;;;;;;;1.55;1.50;;;11.60;99.90;;;;;;5009936;28;20303;-73
2021/05/16 01:17:37;;;;;;;1.75;1.65;;;11.60;99.90;;;;;;5008655;28;20594;-73
2021/05/16 01:20:07;;;;;;;1.50;1.50;;;11.60;99.90;;;;;;5006263;28;20283;-74
2021/05/16 01:22:35;;;;;;;1.83;1.73;;;11.50;99.90;;;;;;5006579;28;20204;-73
2021/05/16 01:25:02;;;;;;;1.83;1.73;;;11.50;99.90;;;;;;5004829;28;20759;-73
2021/05/16 01:27:29;;;;;;;1.85;1.75;;;11.50;99.90;;;;;;5005504;28;20188;-74
2021/05/16 01:29:56;;;;;;;1.90;1.80;;;11.40;99.90;;;;;;5007470;28;20224;-73
2021/05/16 01:32:23;;;;;;;1.80;1.70;;;11.40;99.90;;;;;;5010682;28;20199;-73
2021/05/16 01:34:50;;;;;;;1.88;1.77;;;11.40;99.90;;;;;;5009613;28;20603;-74
2021/05/16 01:37:18;;;;;;;1.85;1.75;;;11.40;99.90;;;;;;5006487;28;20208;-73
2021/05/16 01:39:48;;;;;;;2.08;1.60;;;11.40;99.90;;;;;;5005777;28;20227;-73
2021/05/16 01:42:15;;;;;;;2.17;1.83;;;11.40;99.90;;;;;;5012451;28;20294;-73
2021/05/16 01:44:42;;;;;;;2.00;1.90;;;11.40;99.90;;;;;;5009571;28;20270;-74
2021/05/16 01:47:09;;;;;;;2.03;1.92;;;11.30;99.90;;;;;;5012349;28;20573;-73
2021/05/16 01:49:41;;;;;;;2.00;1.73;;;11.30;99.90;;;;;;5011085;28;20243;-72
2021/05/16 01:52:09;;;;;;;2.22;2.00;;;11.30;99.90;;;;;;5014044;28;20203;-73
2021/05/16 01:54:35;;;;;;;1.73;1.63;;;11.20;99.90;;;;;;5019315;28;20220;-73
2021/05/16 01:57:04;;;;;;;2.00;1.90;;;11.10;99.90;;;;;;5011499;28;20210;-73
2021/05/16 01:59:32;;;;;;;2.05;1.95;;;11.00;99.90;;;;;;5013122;28;20222;-72
2021/05/16 02:02:00;;;;;;;1.92;1.83;;;10.90;99.90;;;;;;5010885;28;20221;-72
2021/05/16 02:04:29;;;;;;;1.73;1.63;;;10.90;99.90;;;;;;5013096;28;20231;-73
2021/05/16 02:06:57;;;;;;;2.10;1.90;;;10.90;99.90;;;;;;5006444;28;20677;-73
2021/05/16 02:09:24;;;;;;;2.20;2.00;;;10.90;99.90;;;;;;5008405;28;20289;-73
2021/05/16 02:11:51;;;;;;;2.00;1.90;;;11.00;99.90;;;;;;5006084;28;20227;-73
2021/05/16 02:14:26;;;;;;;1.75;1.65;;;11.00;99.90;;;;;;5005049;28;20220;-73
2021/05/16 02:16:53;;;;;;;1.85;1.75;;;11.10;99.90;;;;;;5007307;28;20195;-73
2021/05/16 02:19:20;;;;;;;1.65;1.55;;;11.10;99.90;;;;;;5009089;28;20230;-73
2021/05/16 02:21:47;;;;;;;2.42;2.22;;;11.10;99.90;;;;;;5007412;28;20204;-73
2021/05/16 02:24:15;;;;;;;2.22;2.03;;;11.10;99.90;;;;;;5005963;28;20622;-73
2021/05/16 02:26:41;;;;;;;1.70;1.63;;;11.10;99.90;;;;;;5001640;28;20231;-72
2021/05/16 02:29:08;;;;;;;1.73;1.63;;;11.10;99.90;;;;;;5003511;28;20223;-73
2021/05/16 02:31:37;;;;;;;2.00;1.90;;;11.10;99.90;;;;;;5005626;28;20211;-73
2021/05/16 02:34:04;;;;;;;2.00;1.90;;;11.10;99.90;;;;;;5006452;28;20562;-73
2021/05/16 02:36:31;;;;;;;1.88;1.77;;;11.10;99.90;;;;;;5006012;28;20266;-73
2021/05/16 02:38:58;;;;;;;1.95;1.85;;;11.00;99.90;;;;;;5007846;28;20224;-73
2021/05/16 02:41:25;;;;;;;2.00;1.90;;;10.90;99.90;;;;;;5004604;28;20225;-73
2021/05/16 02:43:51;;;;;;;2.10;2.00;;;10.90;99.90;;;;;;5009043;28;20220;-73
2021/05/16 02:46:19;;;;;;;2.30;2.20;;;10.90;99.90;;;;;;5009850;28;20262;-71
2021/05/16 02:48:46;;;;;;;2.15;2.03;;;10.90;99.90;;;;;;5006918;28;20231;-73
2021/05/16 02:51:13;;;;;;;2.08;1.98;;;10.80;99.90;;;;;;5007590;28;20343;-73
2021/05/16 02:53:40;;;;;;;2.20;2.10;;;10.80;99.90;;;;;;5009403;28;20444;-73
2021/05/16 02:56:06;;;;;;;2.10;2.00;;;10.70;99.90;;;;;;5012342;28;20196;-73
2021/05/16 02:58:33;;;;;;;2.13;2.03;;;10.70;99.90;;;;;;5008893;28;20219;-73
2021/05/16 03:00:59;;;;;;;1.90;1.80;;;10.70;99.90;;;;;;5008643;28;20205;-73
2021/05/16 03:03:26;;;;;;;2.17;2.08;;;10.70;99.90;;;;;;5009541;28;20447;-73
2021/05/16 03:05:53;;;;;;;1.77;1.67;;;10.70;99.90;;;;;;5011086;28;20713;-73
2021/05/16 03:11:10;;;;;;;1.80;1.70;;;10.70;99.90;;;;;;5024271;28;20203;-74
2021/05/16 03:13:37;;;;;;;2.03;1.92;;;10.70;99.90;;;;;;5025481;28;20228;-74
2021/05/16 03:16:04;;;;;;;2.10;2.00;;;10.70;99.90;;;;;;5026045;28;20208;-75
2021/05/16 03:18:30;;;;;;;2.20;2.10;;;10.70;99.90;;;;;;5025890;28;20227;-72
2021/05/16 03:20:58;;;;;;;1.83;1.73;;;10.70;99.90;;;;;;5026367;28;20273;-74
2021/05/16 03:23:25;;;;;;;1.90;1.80;;;10.70;99.90;;;;;;5019425;28;20192;-75
2021/05/16 03:25:51;;;;;;;1.90;1.80;;;10.70;99.90;;;;;;5024672;28;20204;-72
2021/05/16 03:28:18;;;;;;;1.92;1.83;;;10.70;99.90;;;;;;5023194;28;20196;-74
2021/05/16 03:30:44;;;;;;;2.60;2.40;;;10.70;99.90;;;;;;5028094;28;20698;-72
2021/05/16 03:33:11;;;;;;;1.88;1.77;;;10.70;99.90;;;;;;5026571;28;20574;-74
2021/05/16 03:35:37;;;;;;;1.85;1.67;;;10.60;99.90;;;;;;5026096;28;20239;-72
2021/05/16 03:38:05;;;;;;;1.98;1.88;;;10.60;99.90;;;;;;5027965;28;20206;-71
2021/05/16 03:40:32;;;;;;;2.00;1.90;;;10.60;99.90;;;;;;5021852;28;20701;-72
2021/05/16 03:42:58;;;;;;;1.92;1.80;;;10.60;99.90;;;;;;5028924;28;20210;-78
2021/05/16 03:45:25;;;;;;;2.05;1.95;;;10.60;99.90;;;;;;5026591;28;20748;-71
2021/05/16 03:47:52;;;;;;;1.90;1.80;;;10.60;99.90;;;;;;5026600;28;20215;-73
2021/05/16 03:50:19;;;;;;;2.13;1.92;;;10.60;99.90;;;;;;5023429;28;20783;-73
2021/05/16 03:52:45;;;;;;;2.10;2.00;;;10.60;99.90;;;;;;5026554;28;20196;-73
2021/05/16 03:55:13;;;;;;;2.65;2.45;;;10.50;99.90;;;;;;5021136;28;20574;-74
2021/05/16 03:57:40;;;;;;;2.20;2.00;;;10.60;99.90;;;;;;5026247;28;20250;-75
2021/05/16 04:00:09;;;;;;;1.85;1.75;;;10.50;99.90;;;;;;5027662;28;20723;-72
2021/05/16 04:02:36;;;;;;;1.70;1.60;;;10.50;99.90;;;;;;5022811;28;20200;-73
2021/05/16 04:05:03;;;;;;;1.65;1.55;;;10.50;99.90;;;;;;5027117;28;20219;-72
2021/05/16 04:07:29;;;;;;;1.95;1.85;;;10.50;99.90;;;;;;5027690;28;20225;-72
2021/05/16 04:09:56;;;;;;;1.90;1.80;;;10.50;99.90;;;;;;5025801;28;20227;-74
2021/05/16 04:12:23;;;;;;;1.85;1.75;;;10.50;99.90;;;;;;5028055;28;20200;-72
2021/05/16 04:14:51;;;;;;;2.15;2.05;;;10.60;99.90;;;;;;5025619;28;20544;-75
2021/05/16 04:17:19;;;;;;;1.63;1.63;;;10.60;99.90;;;;;;5026419;28;20563;-75
2021/05/16 04:19:45;;;;;;;2.17;1.40;;;10.60;99.90;;;;;;5028739;28;20693;-73
2021/05/16 04:22:12;;;;;;;1.90;1.80;;;10.70;99.90;;;;;;5019450;28;20196;-74
2021/05/16 04:24:39;;;;;;;1.98;1.88;;;10.80;99.90;;;;;;5022688;28;20231;-73
2021/05/16 04:27:06;;;;;;;1.90;1.80;;;10.90;99.90;;;;;;5026356;28;20196;-76
2021/05/16 04:29:34;;;;;;;2.00;1.90;;;10.90;99.90;;;;;;5023825;28;20246;-73
2021/05/16 04:32:00;;;;;;;2.00;1.90;;;11.00;99.90;;;;;;5018415;28;20200;-74
2021/05/16 04:34:27;;;;;;;2.00;1.90;;;11.10;99.90;;;;;;5022065;28;20247;-73
2021/05/16 04:36:54;;;;;;;2.00;1.90;;;11.20;99.90;;;;;;5022769;28;20276;-72
2021/05/16 04:39:20;;;;;;;1.80;1.70;;;11.30;99.90;;;;;;5022930;28;20227;-75
2021/05/16 04:41:47;;;;;;;1.80;1.70;;;11.40;99.90;;;;;;5023294;28;20199;-75
2021/05/16 04:44:13;;;;;;;1.77;1.63;;;11.60;99.90;;;;;;5024325;28;20713;-76
2021/05/16 04:46:41;;;;;;;1.67;1.58;;;11.70;99.90;;;;;;5026698;28;20200;-76
2021/05/16 04:49:07;;;;;;;1.88;1.77;;;11.80;99.90;;;;;;5029861;28;20420;-72
2021/05/16 04:51:35;;;;;;;2.88;1.98;;;11.90;99.90;;;;;;5025470;28;20207;-72
2021/05/16 04:54:01;;;;;;;3.25;2.45;;;12.00;99.90;;;;;;5028575;28;20234;-72
2021/05/16 04:56:28;;;;;;;2.15;1.90;;;12.00;99.90;;;;;;5029604;28;20191;-72
2021/05/16 04:58:54;;;;;;;2.00;1.90;;;12.10;99.90;;;;;;5027666;28;20235;-74
2021/05/16 05:01:23;;;;;;;1.83;1.73;;;12.10;99.90;;;;;;5028938;28;20641;-74
2021/05/16 05:03:50;;;;;;;1.70;1.60;;;12.20;99.90;;;;;;5029398;28;20292;-72
2021/05/16 05:06:17;;;;;;;2.10;2.00;;;12.30;99.90;;;;;;5028728;28;20228;-72
2021/05/16 05:08:44;;;;;;;2.25;1.80;;;12.40;99.90;;;;;;5027494;28;21232;-73
2021/05/16 05:11:10;;;;;;;1.75;1.63;;;12.50;99.90;;;;;;5026343;28;20208;-72
2021/05/16 05:13:37;;;;;;;1.80;1.70;;;12.60;99.90;;;;;;5027163;28;20328;-73
2021/05/16 05:16:04;;;;;;;2.10;1.98;;;12.60;99.90;;;;;;5025721;28;20208;-73
2021/05/16 05:18:32;;;;;;;1.83;1.73;;;12.70;99.90;;;;;;5026058;28;20550;-72
2021/05/16 05:21:00;;;;;;;2.15;1.77;;;12.70;99.90;;;;;;5021253;28;20216;-72
2021/05/16 05:23:27;;;;;;;1.70;1.60;;;12.80;99.90;;;;;;5027151;28;20192;-72
2021/05/16 05:25:56;;;;;;;1.65;1.63;;;12.90;99.90;;;;;;5031574;28;20448;-73
2021/05/16 05:28:23;;;;;;;1.80;1.70;;;13.10;99.90;;;;;;5026642;28;20246;-72
2021/05/16 05:30:49;;;;;;;3.22;2.28;;;13.20;99.90;;;;;;5025061;28;20235;-72
2021/05/16 05:33:18;;;;;;;2.28;2.08;;;13.20;99.90;;;;;;5032458;28;20206;-72
2021/05/16 05:35:45;;;;;;;2.30;2.10;;;13.30;99.90;;;;;;5025627;28;20223;-72
2021/05/16 05:38:12;;;;;;;2.00;1.90;;;13.40;99.90;;;;;;5026917;28;20658;-72
2021/05/16 05:40:39;;;;;;;1.60;1.50;;;13.60;99.90;;;;;;5024984;28;20220;-72
2021/05/16 05:43:05;;;;;;;3.88;1.73;;;13.70;99.90;;;;;;5027621;28;20207;-73
2021/05/16 05:45:33;;;;;;;3.72;1.80;;;13.90;99.90;;;;;;5024749;28;20415;-72
2021/05/16 05:48:00;;;;;;;4.00;1.77;;;14.20;99.90;;;;;;5022954;28;20207;-73
2021/05/16 05:50:26;;;;;;;1.83;1.58;;;14.50;99.90;;;;;;5029564;28;20223;-72
2021/05/16 05:52:53;;;;;;;2.70;1.67;;;14.80;99.90;;;;;;5020890;28;20630;-72
2021/05/16 05:55:21;;;;;;;2.25;1.92;;;15.00;99.90;;;;;;5028638;28;20235;-72
2021/05/16 05:57:47;;;;;;;3.47;2.20;;;15.10;99.90;;;;;;5025472;28;20207;-72
2021/05/16 06:00:15;;;;;;;3.42;1.98;;;15.20;99.90;;;;;;5025947;28;20289;-74
2021/05/16 06:02:42;;;;;;;1.95;1.85;;;15.30;99.90;;;;;;5026073;28;20589;-73
2021/05/16 06:05:09;;;;;;;1.80;1.70;;;15.30;99.90;;;;;;5023924;28;20654;-73
2021/05/16 06:07:36;;;;;;;2.13;1.83;;;15.20;99.90;;;;;;5022872;28;21378;-73
2021/05/16 06:10:03;;;;;;;1.95;1.85;;;15.00;99.90;;;;;;5025706;28;20227;-73
2021/05/16 06:12:31;;;;;;;1.65;1.55;;;15.00;99.90;;;;;;5026768;28;20203;-73
2021/05/16 06:14:59;;;;;;;1.77;1.67;;;15.10;99.90;;;;;;5024194;28;20598;-73
2021/05/16 06:17:26;;;;;;;1.70;1.60;;;15.20;99.90;;;;;;5024242;28;20654;-73
2021/05/16 06:19:53;;;;;;;1.55;1.45;;;15.30;99.90;;;;;;5029218;28;20230;-73
2021/05/16 06:22:19;;;;;;;2.20;2.00;;;15.30;99.90;;;;;;5035023;28;20222;-73
2021/05/16 06:24:46;;;;;;;1.85;1.70;;;15.30;99.90;;;;;;5030021;28;20223;-73
2021/05/16 06:27:13;;;;;;;2.10;1.95;;;15.20;99.90;;;;;;5026376;28;20601;-73
2021/05/16 06:29:41;;;;;;;1.83;1.60;;;15.20;99.90;;;;;;5028226;28;20701;-73
2021/05/16 06:32:09;;;;;;;2.20;1.88;;;15.10;99.90;;;;;;5025366;28;20202;-73
2021/05/16 06:34:36;;;;;;;2.00;1.90;;;15.20;99.90;;;;;;5029305;28;20231;-73
2021/05/16 06:37:03;;;;;;;2.13;1.80;;;15.10;99.90;;;;;;5025779;28;21718;-72
2021/05/16 06:39:30;;;;;;;2.15;1.80;;;15.10;99.90;;;;;;5029982;28;20223;-73
2021/05/16 06:41:57;;;;;;;1.95;1.85;;;15.10;99.90;;;;;;5026143;28;20212;-72
2021/05/16 06:44:24;;;;;;;1.88;1.77;;;15.20;99.90;;;;;;5026671;28;20281;-73
2021/05/16 06:46:52;;;;;;;4.20;1.88;;;15.10;99.90;;;;;;5028384;28;20195;-72
2021/05/16 06:49:18;;;;;;;1.70;1.60;;;15.30;99.90;;;;;;5026347;28;20717;-73
2021/05/16 06:51:45;;;;;;;1.75;1.65;;;15.60;99.90;;;;;;5028511;28;20192;-72
2021/05/16 06:54:12;;;;;;;1.85;1.75;;;15.90;99.90;;;;;;5027293;28;20228;-72
2021/05/16 06:56:39;;;;;;;1.80;1.70;;;16.00;99.90;;;;;;5027415;28;20210;-73
2021/05/16 06:59:05;;;;;;;1.42;1.33;;;15.90;99.90;;;;;;5027069;28;20219;-72
2021/05/16 07:01:32;;;;;;;1.60;1.50;;;16.20;99.90;;;;;;5029503;28;20249;-72
2021/05/16 07:04:00;;;;;;;2.47;1.67;;;16.40;99.90;;;;;;5026632;28;20204;-73
2021/05/16 07:06:26;;;;;;;2.47;1.80;;;16.70;99.90;;;;;;5024498;28;20261;-73
2021/05/16 07:08:53;;;;;;;2.15;1.95;;;16.90;99.90;;;;;;5028002;28;20219;-73
2021/05/16 07:11:20;;;;;;;2.15;1.60;;;16.90;99.90;;;;;;5025790;28;20231;-73
2021/05/16 07:13:47;;;;;;;2.00;1.83;;;16.90;99.90;;;;;;5027086;28;20200;-72
2021/05/16 07:16:13;;;;;;;2.78;2.22;;;16.90;99.90;;;;;;5027938;28;20645;-73
2021/05/16 07:18:43;;;;;;;1.70;1.60;;;17.10;99.90;;;;;;5029244;28;20250;-72
2021/05/16 07:21:10;;;;;;;1.63;1.40;;;17.20;99.90;;;;;;5026641;28;20227;-72
2021/05/16 07:23:37;;;;;;;1.83;1.73;;;17.10;99.90;;;;;;5024528;28;20208;-72
2021/05/16 07:26:03;;;;;;;3.05;1.88;;;17.10;99.90;;;;;;5025454;28;20227;-72
2021/05/16 07:28:30;;;;;;;1.90;1.80;;;17.10;99.90;;;;;;5027052;28;20196;-73
2021/05/16 07:30:57;;;;;;;2.45;1.70;;;17.10;99.90;;;;;;5028637;28;20265;-72
2021/05/16 07:33:24;;;;;;;1.98;1.80;;;17.30;99.90;;;;;;5027417;28;20200;-72
2021/05/16 07:35:53;;;;;;;2.22;1.58;;;17.50;99.90;;;;;;5028242;28;20231;-73
2021/05/16 07:38:21;;;;;;;2.65;1.98;;;17.50;99.90;;;;;;5026352;28;20223;-72
2021/05/16 07:40:47;;;;;;;2.10;1.90;;;17.40;99.90;;;;;;5028314;28;20220;-72
2021/05/16 07:43:14;;;;;;;1.80;1.70;;;17.40;99.90;;;;;;5031410;28;20249;-73
2021/05/16 07:45:41;;;;;;;1.63;1.52;;;17.40;99.90;;;;;;5029024;28;20608;-73
2021/05/16 07:48:08;;;;;;;2.00;1.65;;;17.50;99.90;;;;;;5030248;28;20622;-72
2021/05/16 07:50:36;;;;;;;1.80;1.70;;;17.60;99.90;;;;;;5030652;28;20227;-73
2021/05/16 07:53:02;;;;;;;2.70;1.75;;;17.70;99.90;;;;;;5029121;28;20200;-73
2021/05/16 07:55:30;;;;;;;1.90;1.77;;;17.90;99.90;;;;;;5026043;28;20243;-72
2021/05/16 07:57:56;;;;;;;2.13;1.70;;;17.90;99.90;;;;;;5023087;28;20663;-73
2021/05/16 08:00:23;;;;;;;1.85;1.75;;;17.80;99.90;;;;;;5026539;28;20281;-73
2021/05/16 08:02:50;;;;;;;2.00;1.80;;;17.70;99.90;;;;;;5029013;28;20208;-73
2021/05/16 08:05:17;;;;;;;1.90;1.50;;;17.60;99.90;;;;;;5027505;28;20286;-74
2021/05/16 08:07:43;;;;;;;1.75;1.60;;;17.80;99.90;;;;;;5030918;28;20251;-73
2021/05/16 08:10:11;;;;;;;1.90;1.67;;;18.00;99.90;;;;;;5024445;28;20224;-73
2021/05/16 08:12:39;;;;;;;1.80;1.70;;;18.00;99.90;;;;;;5030021;28;20203;-73
2021/05/16 08:15:08;;;;;;;1.77;1.67;;;18.10;99.90;;;;;;5024906;28;20219;-74
2021/05/16 08:17:34;;;;;;;1.70;1.45;;;18.10;99.90;;;;;;5027720;28;20563;-73
2021/05/16 08:20:01;;;;;;;1.70;1.60;;;18.10;99.90;;;;;;5026453;28;20227;-72
2021/05/16 08:22:28;;;;;;;1.80;1.70;;;18.50;99.90;;;;;;5028444;28;20200;-73
2021/05/16 08:24:54;;;;;;;1.58;1.48;;;18.70;99.90;;;;;;5026347;28;20231;-73
2021/05/16 08:27:21;;;;;;;2.20;1.52;;;18.80;99.90;;;;;;5027262;28;20196;-73
2021/05/16 08:29:48;;;;;;;1.60;1.50;;;19.00;99.90;;;;;;5025752;28;20243;-73
2021/05/16 08:32:15;;;;;;;2.33;1.33;;;19.10;99.90;;;;;;5022217;28;20222;-73
2021/05/16 08:34:42;;;;;;;1.60;1.50;;;19.10;99.90;;;;;;5025145;28;20765;-72
2021/05/16 08:37:10;;;;;;;1.48;1.38;;;18.90;99.90;;;;;;5028562;28;20206;-73
2021/05/16 08:39:37;;;;;;;1.50;1.40;;;19.00;99.90;;;;;;5029265;28;20338;-73
2021/05/16 08:42:04;;;;;;;1.75;1.30;;;19.30;99.90;;;;;;5026247;28;20211;-72
2021/05/16 08:44:32;;;;;;;1.48;1.38;;;19.60;99.90;;;;;;5022167;28;20219;-72
2021/05/16 08:47:00;;;;;;;1.60;1.50;;;19.70;99.90;;;;;;5026254;28;20210;-73
2021/05/16 08:49:27;;;;;;;1.65;1.35;;;19.80;99.90;;;;;;5027588;28;20223;-72
2021/05/16 08:51:54;;;;;;;1.45;1.27;;;19.90;99.90;;;;;;5027977;28;20707;-72
2021/05/16 08:54:22;;;;;;;2.58;1.45;;;19.90;99.90;;;;;;5027517;28;20269;-72
2021/05/16 08:56:50;;;;;;;1.67;1.58;;;19.80;99.90;;;;;;5023047;28;20207;-72
2021/05/16 08:59:17;;;;;;;1.73;1.63;;;19.80;99.90;;;;;;5024880;28;20269;-74
2021/05/16 09:01:47;;;;;;;1.63;1.50;;;20.00;99.90;;;;;;5023078;28;20227;-72
2021/05/16 09:04:28;;;;;;;1.35;1.25;;;20.00;99.90;;;;;;5026395;28;20265;-72
2021/05/16 09:06:57;;;;;;;1.50;1.40;;;20.00;99.90;;;;;;5023054;28;20230;-72
2021/05/16 09:09:25;;;;;;;1.30;1.20;;;20.20;99.90;;;;;;5038089;23;20574;-73
2021/05/16 09:11:56;;;;;;;1.90;1.30;;;20.20;99.90;;;;;;4997808;28;20695;-73
2021/05/16 09:14:43;;;;;;;1.65;1.40;;;20.20;99.90;;;;;;5002247;28;20196;-73
2021/05/16 09:17:23;;;;;;;1.50;1.13;;;20.20;99.90;;;;;;5005015;28;20223;-72
2021/05/16 09:19:52;;;;;;;1.20;1.10;;;20.20;99.90;;;;;;5001654;28;20216;-73
2021/05/16 09:22:37;;;;;;;1.40;1.30;;;20.20;99.90;;;;;;5000502;28;20196;-72
2021/05/16 09:25:15;;;;;;;1.48;1.38;;;20.40;99.90;;;;;;4999963;28;20220;-73
2021/05/16 09:27:44;;;;;;;2.00;1.10;;;20.60;99.90;;;;;;5003821;28;20196;-73
2021/05/16 09:30:30;;;;;;;1.90;1.10;;;20.80;99.90;;;;;;5002906;28;20314;-73
2021/05/16 09:32:59;;;;;;;3.85;1.20;;;20.90;99.90;;;;;;5002163;28;20362;-75
2021/05/16 09:35:42;;;;;;;1.05;1.05;;;21.10;99.90;;;;;;5003867;28;20241;-75
2021/05/16 09:38:12;;;;;;;1.52;1.30;;;21.10;99.90;;;;;;5005078;28;20196;-74
2021/05/16 09:40:42;;;;;;;1.17;1.13;;;20.70;99.90;;;;;;5006998;28;20248;-75
2021/05/16 09:43:13;;;;;;;1.50;1.40;;;20.40;99.90;;;;;;5005491;28;20200;-75
2021/05/16 09:45:49;;;;;;;1.42;1.30;;;20.00;99.90;;;;;;5001867;28;20220;-75
2021/05/16 09:48:30;;;;;;;1.15;1.15;;;19.90;99.90;;;;;;5003163;28;20681;-73
2021/05/16 09:51:18;;;;;;;1.40;1.30;;;19.90;99.90;;;;;;5000159;28;20714;-74
2021/05/16 09:53:58;;;;;;;2.38;1.42;;;20.00;99.90;;;;;;5004721;28;20203;-75
2021/05/16 09:56:27;;;;;;;1.50;1.40;;;20.00;99.90;;;;;;5004754;28;20247;-74
2021/05/16 09:58:55;;;;;;;1.35;1.10;;;20.10;99.90;;;;;;5003369;28;20197;-74
2021/05/16 10:01:24;;;;;;;4.28;1.27;;;20.40;99.90;;;;;;5003662;28;20710;-73
2021/05/16 10:03:50;;;;;;;1.00;1.00;;;20.30;99.90;;;;;;4999789;28;20221;-74
2021/05/16 10:06:20;;;;;;;1.98;1.20;;;20.40;99.90;;;;;;5002523;28;20220;-74
2021/05/16 10:08:48;;;;;;;2.88;1.13;;;20.60;99.90;;;;;;5006287;28;20208;-74
2021/05/16 10:11:17;;;;;;;1.35;1.10;;;20.70;99.90;;;;;;5002820;28;20607;-74
2021/05/16 10:13:53;;;;;;;5.15;2.05;;;20.70;99.90;;;;;;5001623;28;20197;-74
2021/05/16 10:16:21;;;;;;;1.98;1.20;;;20.60;99.90;;;;;;5000004;28;20281;-73
2021/05/16 10:18:49;;;;;;;2.38;1.60;;;20.90;99.90;;;;;;5002723;28;20291;-74
2021/05/16 10:21:17;;;;;;;2.75;1.45;;;21.20;99.90;;;;;;4997206;28;20220;-74
2021/05/16 10:23:44;;;;;;;1.75;1.25;;;21.30;99.90;;;;;;5001573;28;20339;-74
2021/05/16 10:26:19;;;;;;;1.17;1.10;;;21.30;99.90;;;;;;5002098;28;20238;-75
2021/05/16 10:29:04;;;;;;;1.95;1.10;;;21.20;99.90;;;;;;5001324;28;20250;-75
2021/05/16 10:31:46;;;;;;;5.38;1.20;;;21.00;99.90;;;;;;5002838;28;20228;-75
2021/05/16 10:34:43;;;;;;;1.45;1.05;;;20.80;99.90;;;;;;4999629;28;20197;-76
2021/05/16 10:37:29;;;;;;;1.73;1.10;;;20.50;99.90;;;;;;5003870;28;20263;-74
2021/05/16 10:39:57;;;;;;;2.83;1.20;;;20.50;99.90;;;;;;4993157;28;20303;-75
2021/05/16 10:42:35;;;;;;;1.30;0.90;;;20.70;99.90;;;;;;5004073;28;20227;-75
2021/05/16 10:45:06;;;;;;;1.35;1.00;;;20.90;99.90;;;;;;5001754;28;20224;-75
2021/05/16 10:47:56;;;;;;;2.53;1.23;;;20.80;99.90;;;;;;5004584;28;20204;-75
2021/05/16 10:50:40;;;;;;;2.33;1.33;;;20.80;99.90;;;;;;5001554;28;20232;-74
2021/05/16 10:53:09;;;;;;;1.25;1.13;;;20.70;99.90;;;;;;5005602;28;20219;-74
2021/05/16 10:55:39;;;;;;;1.38;1.05;;;21.00;99.90;;;;;;5000992;28;21519;-75
2021/05/16 10:58:07;;;;;;;2.20;1.17;;;21.00;99.90;;;;;;5004644;28;20220;-75
2021/05/16 11:00:39;;;;;;;1.77;1.30;;;21.10;99.90;;;;;;4999208;28;22428;-76
2021/05/16 11:03:08;;;;;;;1.63;1.08;;;20.90;99.90;;;;;;5000210;28;22147;-75
2021/05/16 11:05:59;;;;;;;1.20;1.10;;;20.80;99.90;;;;;;4999161;28;20232;-75
2021/05/16 11:09:11;;;;;;;2.33;1.13;;;20.80;99.90;;;;;;5002378;28;20792;-74
2021/05/16 11:11:59;;;;;;;1.00;1.00;;;20.60;99.90;;;;;;5005052;28;20306;-75
2021/05/16 11:14:28;;;;;;;1.70;1.10;;;20.40;99.90;;;;;;5005828;28;21935;-76
2021/05/16 11:17:01;;;;;;;1.10;1.00;;;20.60;99.90;;;;;;5006477;28;20267;-75
2021/05/16 11:19:29;;;;;;;1.27;1.00;;;20.50;99.90;;;;;;5002269;28;20221;-75
2021/05/16 11:21:58;;;;;;;1.70;1.10;;;20.30;99.90;;;;;;5003468;28;20227;-75
2021/05/16 11:24:35;;;;;;;1.38;1.20;;;20.30;99.90;;;;;;5006113;28;20270;-75
2021/05/16 11:27:14;;;;;;;1.40;1.30;;;20.60;99.90;;;;;;5007090;28;20592;-75
2021/05/16 11:29:40;;;;;;;1.20;1.10;;;20.60;99.90;;;;;;5004792;28;20224;-74
2021/05/16 11:32:07;;;;;;;0.98;0.95;;;20.60;99.90;;;;;;5006112;28;20243;-75
2021/05/16 11:34:34;;;;;;;1.70;0.98;;;20.70;99.90;;;;;;5003646;28;20584;-75
2021/05/16 11:37:15;;;;;;;1.25;1.15;;;21.00;99.90;;;;;;5004823;28;20220;-77
2021/05/16 11:39:42;;;;;;;1.30;1.20;;;21.00;99.90;;;;;;5006107;28;20222;-75
2021/05/16 11:42:10;;;;;;;2.60;1.30;;;21.20;99.90;;;;;;5007812;28;20239;-76
2021/05/16 11:44:36;;;;;;;2.05;1.10;;;21.40;99.90;;;;;;5006234;28;20303;-75
2021/05/16 11:47:03;;;;;;;1.00;1.00;;;21.30;99.90;;;;;;5005541;28;20636;-74
2021/05/16 11:49:31;;;;;;;3.42;1.13;;;21.40;99.90;;;;;;5001106;28;20212;-75
2021/05/16 11:51:59;;;;;;;6.03;1.20;;;21.20;99.90;;;;;;5003573;28;20231;-74
2021/05/16 11:54:27;;;;;;;1.10;1.00;;;21.20;99.90;;;;;;5002880;28;20205;-74
2021/05/16 11:56:54;;;;;;;1.17;1.02;;;21.20;99.90;;;;;;5003296;28;20227;-74
2021/05/16 11:59:30;;;;;;;1.50;1.17;;;21.50;99.90;;;;;;5002846;28;20216;-74
2021/05/16 12:02:02;;;;;;;1.70;1.10;;;21.50;99.90;;;;;;5003490;28;20660;-74
2021/05/16 12:04:38;;;;;;;1.67;1.10;;;21.30;99.90;;;;;;5002135;28;20568;-75
2021/05/16 12:07:05;;;;;;;1.95;1.10;;;21.00;99.90;;;;;;5005685;28;20597;-76
2021/05/16 12:09:37;;;;;;;1.60;1.08;;;20.90;99.90;;;;;;5003673;28;20232;-75
2021/05/16 12:12:16;;;;;;;1.65;1.05;;;21.20;99.90;;;;;;5008425;28;20585;-77
2021/05/16 12:14:45;;;;;;;1.98;0.98;;;20.80;99.90;;;;;;5004943;28;20895;-76
2021/05/16 12:17:13;;;;;;;1.60;1.00;;;20.70;99.90;;;;;;5007794;28;20714;-75
2021/05/16 12:19:40;;;;;;;1.05;0.95;;;20.60;99.90;;;;;;5006255;28;20282;-77
2021/05/16 12:22:08;;;;;;;1.25;1.10;;;20.50;99.90;;;;;;5008793;28;20706;-75
2021/05/16 12:24:37;;;;;;;3.65;1.48;;;20.40;99.90;;;;;;5004810;28;20220;-76
2021/05/16 12:27:05;;;;;;;1.98;1.38;;;20.40;99.90;;;;;;5006739;28;20294;-76
2021/05/16 12:29:32;;;;;;;2.08;1.30;;;20.70;99.90;;;;;;5004820;28;20641;-75
2021/05/16 12:31:59;;;;;;;2.50;1.30;;;21.00;99.90;;;;;;5001666;28;20217;-75
2021/05/16 12:34:28;;;;;;;1.10;1.00;;;21.30;99.90;;;;;;5005745;28;20196;-74
2021/05/16 12:36:57;;;;;;;2.13;1.20;;;21.40;99.90;;;;;;5003211;28;20216;-75
2021/05/16 12:39:37;;;;;;;1.63;1.15;;;21.20;99.90;;;;;;5006889;28;20641;-75
2021/05/16 12:42:22;;;;;;;1.88;1.20;;;21.20;99.90;;;;;;5005157;28;20228;-75
2021/05/16 12:44:49;;;;;;;2.55;1.23;;;21.40;99.90;;;;;;5004040;28;20216;-75
2021/05/16 12:47:23;;;;;;;1.40;1.20;;;21.60;99.90;;;;;;5001747;28;20603;-75
2021/05/16 12:50:00;;;;;;;2.35;1.50;;;21.60;99.90;;;;;;5007334;28;20227;-76
2021/05/16 12:52:27;;;;;;;1.15;1.05;;;21.70;99.90;;;;;;5007232;28;20215;-76
2021/05/16 12:54:53;;;;;;;1.25;1.15;;;21.70;99.90;;;;;;5000898;28;20246;-76
2021/05/16 12:57:29;;;;;;;2.83;1.20;;;21.90;99.90;;;;;;5004602;28;20216;-76
2021/05/16 12:59:56;;;;;;;2.65;1.30;;;22.00;99.90;;;;;;5001198;28;20254;-76